sensor_id;sensor_type;location;lat;lon;timestamp;P1;durP1;ratioP1;P2;durP2;ratioP2
32906;SDS011;19259;51.590;5.320;2022-07-26T00:01:57;5.95;;;2.30;;
32906;SDS011;19259;51.590;5.320;2022-07-26T00:04:25;8.70;;;2.25;;
32906;SDS011;19259;51.590;5.320;2022-07-26T00:06:53;13.25;;;2.08;;
32906;SDS011;19259;51.590;5.320;2022-07-26T00:09:21;6.47;;;2.00;;
32906;SDS011;19259;51.590;5.320;2022-07-26T00:11:48;9.98;;;1.62;;
32906;SDS011;19259;51.590;5.320;2022-07-26T00:14:16;10.80;;;2.10;;
32906;SDS011;19259;51.590;5.320;2022-07-26T00:16:44;9.88;;;2.17;;
32906;SDS011;19259;51.590;5.320;2022-07-26T00:19:11;7.83;;;2.47;;
32906;SDS011;19259;51.590;5.320;2022-07-26T00:21:39;9.60;;;2.42;;
32906;SDS011;19259;51.590;5.320;2022-07-26T00:24:07;10.43;;;2.27;;
32906;SDS011;19259;51.590;5.320;2022-07-26T00:26:35;15.30;;;2.75;;
32906;SDS011;19259;51.590;5.320;2022-07-26T00:29:03;11.70;;;3.00;;
32906;SDS011;19259;51.590;5.320;2022-07-26T00:31:30;8.60;;;2.60;;
32906;SDS011;19259;51.590;5.320;2022-07-26T00:33:58;9.50;;;2.60;;
32906;SDS011;19259;51.590;5.320;2022-07-26T00:36:31;16.12;;;2.98;;
32906;SDS011;19259;51.590;5.320;2022-07-26T00:38:55;9.05;;;2.40;;
32906;SDS011;19259;51.590;5.320;2022-07-26T00:41:22;11.05;;;3.05;;
32906;SDS011;19259;51.590;5.320;2022-07-26T00:43:53;9.25;;;2.40;;
32906;SDS011;19259;51.590;5.320;2022-07-26T00:46:21;10.85;;;2.60;;
32906;SDS011;19259;51.590;5.320;2022-07-26T00:48:49;9.78;;;2.87;;
32906;SDS011;19259;51.590;5.320;2022-07-26T00:51:17;13.22;;;2.60;;
32906;SDS011;19259;51.590;5.320;2022-07-26T00:53:45;8.40;;;2.27;;
32906;SDS011;19259;51.590;5.320;2022-07-26T00:56:14;11.57;;;2.72;;
32906;SDS011;19259;51.590;5.320;2022-07-26T00:58:42;10.63;;;2.40;;
32906;SDS011;19259;51.590;5.320;2022-07-26T01:01:10;19.10;;;2.80;;
32906;SDS011;19259;51.590;5.320;2022-07-26T01:03:38;11.63;;;2.60;;
32906;SDS011;19259;51.590;5.320;2022-07-26T01:06:05;9.35;;;2.00;;
32906;SDS011;19259;51.590;5.320;2022-07-26T01:08:36;8.70;;;2.25;;
32906;SDS011;19259;51.590;5.320;2022-07-26T01:11:03;6.33;;;2.40;;
32906;SDS011;19259;51.590;5.320;2022-07-26T01:13:30;9.03;;;2.60;;
32906;SDS011;19259;51.590;5.320;2022-07-26T01:15:59;13.30;;;2.30;;
32906;SDS011;19259;51.590;5.320;2022-07-26T01:18:26;10.35;;;2.20;;
32906;SDS011;19259;51.590;5.320;2022-07-26T01:20:54;9.88;;;2.35;;
32906;SDS011;19259;51.590;5.320;2022-07-26T01:23:24;9.25;;;2.55;;
32906;SDS011;19259;51.590;5.320;2022-07-26T01:25:52;8.80;;;2.27;;
32906;SDS011;19259;51.590;5.320;2022-07-26T01:28:19;11.55;;;2.60;;
32906;SDS011;19259;51.590;5.320;2022-07-26T01:30:47;18.05;;;2.90;;
32906;SDS011;19259;51.590;5.320;2022-07-26T01:33:15;9.30;;;3.05;;
32906;SDS011;19259;51.590;5.320;2022-07-26T01:35:43;8.10;;;2.72;;
32906;SDS011;19259;51.590;5.320;2022-07-26T01:38:10;11.97;;;2.75;;
32906;SDS011;19259;51.590;5.320;2022-07-26T01:40:38;11.40;;;2.95;;
32906;SDS011;19259;51.590;5.320;2022-07-26T01:43:05;9.73;;;2.77;;
32906;SDS011;19259;51.590;5.320;2022-07-26T01:45:33;8.68;;;2.35;;
32906;SDS011;19259;51.590;5.320;2022-07-26T01:48:00;14.28;;;3.17;;
32906;SDS011;19259;51.590;5.320;2022-07-26T01:50:28;11.10;;;2.85;;
32906;SDS011;19259;51.590;5.320;2022-07-26T01:52:56;8.88;;;2.50;;
32906;SDS011;19259;51.590;5.320;2022-07-26T01:55:23;10.68;;;3.47;;
32906;SDS011;19259;51.590;5.320;2022-07-26T01:57:51;13.60;;;3.52;;
32906;SDS011;19259;51.590;5.320;2022-07-26T02:00:19;15.15;;;3.87;;
32906;SDS011;19259;51.590;5.320;2022-07-26T02:02:46;13.55;;;3.72;;
32906;SDS011;19259;51.590;5.320;2022-07-26T02:05:14;20.23;;;3.17;;
32906;SDS011;19259;51.590;5.320;2022-07-26T02:07:42;12.85;;;2.72;;
32906;SDS011;19259;51.590;5.320;2022-07-26T02:10:10;11.60;;;3.10;;
32906;SDS011;19259;51.590;5.320;2022-07-26T02:12:40;14.83;;;2.80;;
32906;SDS011;19259;51.590;5.320;2022-07-26T02:15:08;12.95;;;3.60;;
32906;SDS011;19259;51.590;5.320;2022-07-26T02:17:37;13.28;;;2.92;;
32906;SDS011;19259;51.590;5.320;2022-07-26T02:20:05;13.55;;;3.45;;
32906;SDS011;19259;51.590;5.320;2022-07-26T02:22:34;10.00;;;3.12;;
32906;SDS011;19259;51.590;5.320;2022-07-26T02:25:05;10.65;;;3.35;;
32906;SDS011;19259;51.590;5.320;2022-07-26T02:27:33;9.73;;;3.25;;
32906;SDS011;19259;51.590;5.320;2022-07-26T02:30:00;17.17;;;3.42;;
32906;SDS011;19259;51.590;5.320;2022-07-26T02:32:28;12.43;;;3.00;;
32906;SDS011;19259;51.590;5.320;2022-07-26T02:34:55;13.08;;;3.62;;
32906;SDS011;19259;51.590;5.320;2022-07-26T02:37:23;17.48;;;3.60;;
32906;SDS011;19259;51.590;5.320;2022-07-26T02:39:50;14.53;;;3.58;;
32906;SDS011;19259;51.590;5.320;2022-07-26T02:42:18;17.35;;;3.75;;
32906;SDS011;19259;51.590;5.320;2022-07-26T02:44:45;12.25;;;3.55;;
32906;SDS011;19259;51.590;5.320;2022-07-26T02:47:14;9.90;;;3.02;;
32906;SDS011;19259;51.590;5.320;2022-07-26T02:49:41;11.38;;;3.05;;
32906;SDS011;19259;51.590;5.320;2022-07-26T02:52:09;15.40;;;4.35;;
32906;SDS011;19259;51.590;5.320;2022-07-26T02:54:38;13.45;;;3.87;;
32906;SDS011;19259;51.590;5.320;2022-07-26T02:57:05;12.55;;;3.35;;
32906;SDS011;19259;51.590;5.320;2022-07-26T02:59:33;16.48;;;3.70;;
32906;SDS011;19259;51.590;5.320;2022-07-26T03:02:00;11.95;;;4.00;;
32906;SDS011;19259;51.590;5.320;2022-07-26T03:04:28;22.75;;;3.87;;
32906;SDS011;19259;51.590;5.320;2022-07-26T03:06:55;13.93;;;3.37;;
32906;SDS011;19259;51.590;5.320;2022-07-26T03:09:23;15.05;;;3.67;;
32906;SDS011;19259;51.590;5.320;2022-07-26T03:11:50;15.18;;;4.15;;
32906;SDS011;19259;51.590;5.320;2022-07-26T03:14:21;12.53;;;3.77;;
32906;SDS011;19259;51.590;5.320;2022-07-26T03:16:48;13.58;;;4.12;;
32906;SDS011;19259;51.590;5.320;2022-07-26T03:19:16;13.08;;;3.67;;
32906;SDS011;19259;51.590;5.320;2022-07-26T03:21:43;11.90;;;3.55;;
32906;SDS011;19259;51.590;5.320;2022-07-26T03:24:11;13.38;;;3.83;;
32906;SDS011;19259;51.590;5.320;2022-07-26T03:26:38;16.62;;;3.40;;
32906;SDS011;19259;51.590;5.320;2022-07-26T03:29:06;14.03;;;3.90;;
32906;SDS011;19259;51.590;5.320;2022-07-26T03:31:33;14.05;;;3.77;;
32906;SDS011;19259;51.590;5.320;2022-07-26T03:34:01;12.07;;;3.60;;
32906;SDS011;19259;51.590;5.320;2022-07-26T03:36:29;14.53;;;4.37;;
32906;SDS011;19259;51.590;5.320;2022-07-26T03:38:56;15.88;;;3.60;;
32906;SDS011;19259;51.590;5.320;2022-07-26T03:41:24;13.25;;;4.00;;
32906;SDS011;19259;51.590;5.320;2022-07-26T03:43:51;18.70;;;4.65;;
32906;SDS011;19259;51.590;5.320;2022-07-26T03:46:19;16.07;;;3.90;;
32906;SDS011;19259;51.590;5.320;2022-07-26T03:48:46;21.45;;;4.35;;
32906;SDS011;19259;51.590;5.320;2022-07-26T03:51:14;16.87;;;4.45;;
32906;SDS011;19259;51.590;5.320;2022-07-26T03:53:41;13.43;;;3.98;;
32906;SDS011;19259;51.590;5.320;2022-07-26T03:56:09;10.55;;;3.67;;
32906;SDS011;19259;51.590;5.320;2022-07-26T03:58:57;16.35;;;4.60;;
32906;SDS011;19259;51.590;5.320;2022-07-26T04:01:27;13.20;;;4.03;;
32906;SDS011;19259;51.590;5.320;2022-07-26T04:03:55;12.10;;;4.00;;
32906;SDS011;19259;51.590;5.320;2022-07-26T04:06:23;16.87;;;4.60;;
32906;SDS011;19259;51.590;5.320;2022-07-26T04:08:50;14.28;;;4.42;;
32906;SDS011;19259;51.590;5.320;2022-07-26T04:11:18;13.55;;;4.17;;
32906;SDS011;19259;51.590;5.320;2022-07-26T04:13:46;12.55;;;3.90;;
32906;SDS011;19259;51.590;5.320;2022-07-26T04:16:13;14.93;;;3.87;;
32906;SDS011;19259;51.590;5.320;2022-07-26T04:18:41;18.67;;;4.85;;
32906;SDS011;19259;51.590;5.320;2022-07-26T04:21:08;15.43;;;4.40;;
32906;SDS011;19259;51.590;5.320;2022-07-26T04:23:36;18.00;;;4.03;;
32906;SDS011;19259;51.590;5.320;2022-07-26T04:26:03;16.82;;;4.08;;
32906;SDS011;19259;51.590;5.320;2022-07-26T04:28:31;16.40;;;4.08;;
32906;SDS011;19259;51.590;5.320;2022-07-26T04:30:59;14.93;;;4.45;;
32906;SDS011;19259;51.590;5.320;2022-07-26T04:33:27;14.58;;;3.80;;
32906;SDS011;19259;51.590;5.320;2022-07-26T04:35:55;12.25;;;4.60;;
32906;SDS011;19259;51.590;5.320;2022-07-26T04:38:22;13.20;;;4.37;;
32906;SDS011;19259;51.590;5.320;2022-07-26T04:40:50;19.30;;;4.30;;
32906;SDS011;19259;51.590;5.320;2022-07-26T04:43:18;17.23;;;4.08;;
32906;SDS011;19259;51.590;5.320;2022-07-26T04:45:46;14.75;;;4.30;;
32906;SDS011;19259;51.590;5.320;2022-07-26T04:48:14;16.45;;;4.22;;
32906;SDS011;19259;51.590;5.320;2022-07-26T04:50:42;20.70;;;4.15;;
32906;SDS011;19259;51.590;5.320;2022-07-26T04:53:10;17.12;;;4.50;;
32906;SDS011;19259;51.590;5.320;2022-07-26T04:55:38;17.70;;;4.83;;
32906;SDS011;19259;51.590;5.320;2022-07-26T04:58:07;12.43;;;4.40;;
32906;SDS011;19259;51.590;5.320;2022-07-26T05:00:35;11.97;;;4.87;;
32906;SDS011;19259;51.590;5.320;2022-07-26T05:03:03;15.80;;;4.92;;
32906;SDS011;19259;51.590;5.320;2022-07-26T05:05:31;19.05;;;5.15;;
32906;SDS011;19259;51.590;5.320;2022-07-26T05:07:59;15.45;;;4.72;;
32906;SDS011;19259;51.590;5.320;2022-07-26T05:10:32;12.82;;;5.05;;
32906;SDS011;19259;51.590;5.320;2022-07-26T05:13:01;13.78;;;5.17;;
32906;SDS011;19259;51.590;5.320;2022-07-26T05:15:30;22.77;;;6.08;;
32906;SDS011;19259;51.590;5.320;2022-07-26T05:18:03;17.00;;;5.22;;
32906;SDS011;19259;51.590;5.320;2022-07-26T05:20:32;18.00;;;4.80;;
32906;SDS011;19259;51.590;5.320;2022-07-26T05:23:00;15.13;;;4.90;;
32906;SDS011;19259;51.590;5.320;2022-07-26T05:25:33;8.80;;;4.08;;
32906;SDS011;19259;51.590;5.320;2022-07-26T05:28:02;16.23;;;5.20;;
32906;SDS011;19259;51.590;5.320;2022-07-26T05:30:51;15.48;;;4.65;;
32906;SDS011;19259;51.590;5.320;2022-07-26T05:33:18;17.30;;;5.00;;
32906;SDS011;19259;51.590;5.320;2022-07-26T05:35:46;14.13;;;5.15;;
32906;SDS011;19259;51.590;5.320;2022-07-26T05:38:13;14.85;;;4.92;;
32906;SDS011;19259;51.590;5.320;2022-07-26T05:40:41;16.35;;;4.85;;
32906;SDS011;19259;51.590;5.320;2022-07-26T05:43:08;17.90;;;5.10;;
32906;SDS011;19259;51.590;5.320;2022-07-26T05:45:36;16.95;;;4.67;;
32906;SDS011;19259;51.590;5.320;2022-07-26T05:48:03;16.17;;;4.85;;
32906;SDS011;19259;51.590;5.320;2022-07-26T05:50:31;14.25;;;5.05;;
32906;SDS011;19259;51.590;5.320;2022-07-26T05:52:58;14.53;;;4.65;;
32906;SDS011;19259;51.590;5.320;2022-07-26T05:55:26;16.42;;;4.37;;
32906;SDS011;19259;51.590;5.320;2022-07-26T05:57:56;12.20;;;4.22;;
32906;SDS011;19259;51.590;5.320;2022-07-26T06:00:24;9.90;;;3.47;;
32906;SDS011;19259;51.590;5.320;2022-07-26T06:02:51;15.45;;;3.47;;
32906;SDS011;19259;51.590;5.320;2022-07-26T06:05:19;11.43;;;3.58;;
32906;SDS011;19259;51.590;5.320;2022-07-26T06:07:46;13.20;;;4.60;;
32906;SDS011;19259;51.590;5.320;2022-07-26T06:10:14;18.27;;;5.05;;
32906;SDS011;19259;51.590;5.320;2022-07-26T06:12:42;10.65;;;4.33;;
32906;SDS011;19259;51.590;5.320;2022-07-26T06:15:09;10.35;;;4.35;;
32906;SDS011;19259;51.590;5.320;2022-07-26T06:17:39;13.08;;;3.83;;
32906;SDS011;19259;51.590;5.320;2022-07-26T06:20:09;12.43;;;4.83;;
32906;SDS011;19259;51.590;5.320;2022-07-26T06:22:37;19.25;;;5.25;;
32906;SDS011;19259;51.590;5.320;2022-07-26T06:25:05;10.93;;;4.10;;
32906;SDS011;19259;51.590;5.320;2022-07-26T06:27:33;14.68;;;4.80;;
32906;SDS011;19259;51.590;5.320;2022-07-26T06:30:00;14.35;;;3.55;;
32906;SDS011;19259;51.590;5.320;2022-07-26T06:32:28;11.03;;;4.25;;
32906;SDS011;19259;51.590;5.320;2022-07-26T06:34:55;11.30;;;3.85;;
32906;SDS011;19259;51.590;5.320;2022-07-26T06:37:23;11.97;;;3.87;;
32906;SDS011;19259;51.590;5.320;2022-07-26T06:39:51;14.60;;;3.90;;
32906;SDS011;19259;51.590;5.320;2022-07-26T06:42:18;11.10;;;3.20;;
32906;SDS011;19259;51.590;5.320;2022-07-26T06:44:46;14.43;;;3.50;;
32906;SDS011;19259;51.590;5.320;2022-07-26T06:47:13;9.25;;;3.52;;
32906;SDS011;19259;51.590;5.320;2022-07-26T06:49:45;8.73;;;3.47;;
32906;SDS011;19259;51.590;5.320;2022-07-26T06:52:13;9.58;;;3.00;;
32906;SDS011;19259;51.590;5.320;2022-07-26T06:54:40;8.63;;;3.02;;
32906;SDS011;19259;51.590;5.320;2022-07-26T06:57:08;12.00;;;2.92;;
32906;SDS011;19259;51.590;5.320;2022-07-26T06:59:35;8.28;;;2.95;;
32906;SDS011;19259;51.590;5.320;2022-07-26T07:02:03;16.00;;;3.20;;
32906;SDS011;19259;51.590;5.320;2022-07-26T07:04:31;6.33;;;2.52;;
32906;SDS011;19259;51.590;5.320;2022-07-26T07:06:59;10.85;;;2.77;;
32906;SDS011;19259;51.590;5.320;2022-07-26T07:09:28;12.28;;;3.45;;
32906;SDS011;19259;51.590;5.320;2022-07-26T07:11:57;9.13;;;2.70;;
32906;SDS011;19259;51.590;5.320;2022-07-26T07:14:24;8.10;;;2.98;;
32906;SDS011;19259;51.590;5.320;2022-07-26T07:16:52;8.85;;;3.08;;
32906;SDS011;19259;51.590;5.320;2022-07-26T07:19:20;13.65;;;3.10;;
32906;SDS011;19259;51.590;5.320;2022-07-26T07:21:48;10.13;;;2.52;;
32906;SDS011;19259;51.590;5.320;2022-07-26T07:24:15;9.28;;;2.77;;
32906;SDS011;19259;51.590;5.320;2022-07-26T07:26:43;8.48;;;2.70;;
32906;SDS011;19259;51.590;5.320;2022-07-26T07:29:11;8.18;;;2.17;;
32906;SDS011;19259;51.590;5.320;2022-07-26T07:31:40;8.45;;;2.12;;
32906;SDS011;19259;51.590;5.320;2022-07-26T07:34:07;10.72;;;2.60;;
32906;SDS011;19259;51.590;5.320;2022-07-26T07:36:35;12.05;;;2.58;;
32906;SDS011;19259;51.590;5.320;2022-07-26T07:39:03;9.83;;;2.83;;
32906;SDS011;19259;51.590;5.320;2022-07-26T07:41:32;7.92;;;3.02;;
32906;SDS011;19259;51.590;5.320;2022-07-26T07:44:01;8.28;;;2.70;;
32906;SDS011;19259;51.590;5.320;2022-07-26T07:46:28;6.05;;;2.20;;
32906;SDS011;19259;51.590;5.320;2022-07-26T07:48:56;11.20;;;2.87;;
32906;SDS011;19259;51.590;5.320;2022-07-26T07:51:24;4.10;;;1.37;;
32906;SDS011;19259;51.590;5.320;2022-07-26T07:53:53;5.37;;;1.20;;
32906;SDS011;19259;51.590;5.320;2022-07-26T07:56:21;3.27;;;1.45;;
32906;SDS011;19259;51.590;5.320;2022-07-26T07:58:49;2.05;;;0.80;;
32906;SDS011;19259;51.590;5.320;2022-07-26T08:01:16;2.60;;;0.98;;
32906;SDS011;19259;51.590;5.320;2022-07-26T08:03:44;1.50;;;0.88;;
32906;SDS011;19259;51.590;5.320;2022-07-26T08:06:11;4.37;;;0.98;;
32906;SDS011;19259;51.590;5.320;2022-07-26T08:08:39;6.53;;;1.00;;
32906;SDS011;19259;51.590;5.320;2022-07-26T08:11:06;3.60;;;0.82;;
32906;SDS011;19259;51.590;5.320;2022-07-26T08:13:34;2.00;;;0.95;;
32906;SDS011;19259;51.590;5.320;2022-07-26T08:16:02;1.35;;;0.70;;
32906;SDS011;19259;51.590;5.320;2022-07-26T08:18:29;1.20;;;0.40;;
32906;SDS011;19259;51.590;5.320;2022-07-26T08:20:57;2.80;;;0.60;;
32906;SDS011;19259;51.590;5.320;2022-07-26T08:23:24;1.32;;;0.60;;
32906;SDS011;19259;51.590;5.320;2022-07-26T08:25:52;3.60;;;0.90;;
32906;SDS011;19259;51.590;5.320;2022-07-26T08:28:19;2.40;;;0.75;;
32906;SDS011;19259;51.590;5.320;2022-07-26T08:30:49;2.60;;;0.80;;
32906;SDS011;19259;51.590;5.320;2022-07-26T08:33:16;1.07;;;0.65;;
32906;SDS011;19259;51.590;5.320;2022-07-26T08:35:44;1.47;;;0.80;;
32906;SDS011;19259;51.590;5.320;2022-07-26T08:38:11;1.90;;;0.78;;
32906;SDS011;19259;51.590;5.320;2022-07-26T08:40:39;1.27;;;0.75;;
32906;SDS011;19259;51.590;5.320;2022-07-26T08:43:07;2.00;;;1.10;;
32906;SDS011;19259;51.590;5.320;2022-07-26T08:45:36;1.67;;;1.00;;
32906;SDS011;19259;51.590;5.320;2022-07-26T08:48:03;2.35;;;1.10;;
32906;SDS011;19259;51.590;5.320;2022-07-26T08:50:31;3.58;;;1.60;;
32906;SDS011;19259;51.590;5.320;2022-07-26T08:53:00;5.45;;;1.20;;
32906;SDS011;19259;51.590;5.320;2022-07-26T08:55:30;4.22;;;1.30;;
32906;SDS011;19259;51.590;5.320;2022-07-26T08:58:00;6.50;;;2.10;;
32906;SDS011;19259;51.590;5.320;2022-07-26T09:00:29;3.05;;;1.12;;
32906;SDS011;19259;51.590;5.320;2022-07-26T09:02:57;3.35;;;1.60;;
32906;SDS011;19259;51.590;5.320;2022-07-26T09:05:30;3.45;;;1.10;;
32906;SDS011;19259;51.590;5.320;2022-07-26T09:08:00;4.53;;;1.60;;
32906;SDS011;19259;51.590;5.320;2022-07-26T09:10:32;6.47;;;2.25;;
32906;SDS011;19259;51.590;5.320;2022-07-26T09:13:00;4.42;;;1.47;;
32906;SDS011;19259;51.590;5.320;2022-07-26T09:15:28;6.20;;;1.32;;
32906;SDS011;19259;51.590;5.320;2022-07-26T09:17:56;5.83;;;1.55;;
32906;SDS011;19259;51.590;5.320;2022-07-26T09:20:30;5.37;;;2.20;;
32906;SDS011;19259;51.590;5.320;2022-07-26T09:22:55;4.78;;;1.80;;
32906;SDS011;19259;51.590;5.320;2022-07-26T09:25:34;8.48;;;2.37;;
32906;SDS011;19259;51.590;5.320;2022-07-26T09:28:20;4.78;;;1.65;;
32906;SDS011;19259;51.590;5.320;2022-07-26T09:30:50;4.67;;;1.70;;
32906;SDS011;19259;51.590;5.320;2022-07-26T09:33:19;6.62;;;1.27;;
32906;SDS011;19259;51.590;5.320;2022-07-26T09:36:07;4.62;;;0.98;;
32906;SDS011;19259;51.590;5.320;2022-07-26T09:38:38;2.95;;;1.12;;
32906;SDS011;19259;51.590;5.320;2022-07-26T09:41:21;2.87;;;0.60;;
32906;SDS011;19259;51.590;5.320;2022-07-26T09:43:51;4.10;;;0.90;;
32906;SDS011;19259;51.590;5.320;2022-07-26T09:46:21;5.40;;;1.12;;
32906;SDS011;19259;51.590;5.320;2022-07-26T09:48:51;3.62;;;0.98;;
32906;SDS011;19259;51.590;5.320;2022-07-26T09:51:40;2.10;;;1.07;;
32906;SDS011;19259;51.590;5.320;2022-07-26T09:54:10;2.80;;;0.78;;
32906;SDS011;19259;51.590;5.320;2022-07-26T09:56:43;2.83;;;1.10;;
32906;SDS011;19259;51.590;5.320;2022-07-26T09:59:17;3.52;;;0.82;;
32906;SDS011;19259;51.590;5.320;2022-07-26T10:01:46;1.70;;;0.80;;
32906;SDS011;19259;51.590;5.320;2022-07-26T10:04:14;1.87;;;0.80;;
32906;SDS011;19259;51.590;5.320;2022-07-26T10:06:42;4.70;;;1.10;;
32906;SDS011;19259;51.590;5.320;2022-07-26T10:09:10;4.35;;;0.80;;
32906;SDS011;19259;51.590;5.320;2022-07-26T10:17:37;4.22;;;0.72;;
32906;SDS011;19259;51.590;5.320;2022-07-26T10:19:47;1.22;;;0.60;;
32906;SDS011;19259;51.590;5.320;2022-07-26T10:22:21;3.08;;;0.70;;
32906;SDS011;19259;51.590;5.320;2022-07-26T10:24:51;4.08;;;0.70;;
32906;SDS011;19259;51.590;5.320;2022-07-26T10:27:35;2.02;;;0.78;;
32906;SDS011;19259;51.590;5.320;2022-07-26T10:33:06;2.92;;;0.70;;
32906;SDS011;19259;51.590;5.320;2022-07-26T10:38:06;1.65;;;0.82;;
32906;SDS011;19259;51.590;5.320;2022-07-26T10:40:36;4.03;;;0.90;;
32906;SDS011;19259;51.590;5.320;2022-07-26T10:45:42;2.92;;;0.90;;
32906;SDS011;19259;51.590;5.320;2022-07-26T10:48:17;1.45;;;0.72;;
32906;SDS011;19259;51.590;5.320;2022-07-26T10:50:48;3.60;;;1.00;;
32906;SDS011;19259;51.590;5.320;2022-07-26T10:53:26;3.77;;;1.07;;
32906;SDS011;19259;51.590;5.320;2022-07-26T10:58:21;4.80;;;1.30;;
32906;SDS011;19259;51.590;5.320;2022-07-26T11:00:58;5.28;;;1.45;;
32906;SDS011;19259;51.590;5.320;2022-07-26T11:03:40;8.03;;;1.35;;
32906;SDS011;19259;51.590;5.320;2022-07-26T11:06:12;7.70;;;1.87;;
32906;SDS011;19259;51.590;5.320;2022-07-26T11:08:43;5.35;;;2.00;;
32906;SDS011;19259;51.590;5.320;2022-07-26T11:11:12;5.87;;;2.00;;
32906;SDS011;19259;51.590;5.320;2022-07-26T11:13:42;3.40;;;1.92;;
32906;SDS011;19259;51.590;5.320;2022-07-26T11:16:09;5.97;;;2.20;;
32906;SDS011;19259;51.590;5.320;2022-07-26T11:18:37;5.35;;;2.55;;
32906;SDS011;19259;51.590;5.320;2022-07-26T11:21:12;6.40;;;1.75;;
32906;SDS011;19259;51.590;5.320;2022-07-26T11:23:41;5.65;;;1.25;;
32906;SDS011;19259;51.590;5.320;2022-07-26T11:28:48;3.33;;;1.52;;
32906;SDS011;19259;51.590;5.320;2022-07-26T11:31:19;6.67;;;1.70;;
32906;SDS011;19259;51.590;5.320;2022-07-26T11:33:48;7.65;;;2.17;;
32906;SDS011;19259;51.590;5.320;2022-07-26T11:36:17;5.30;;;1.70;;
32906;SDS011;19259;51.590;5.320;2022-07-26T11:38:50;5.30;;;1.60;;
32906;SDS011;19259;51.590;5.320;2022-07-26T11:41:23;4.00;;;1.75;;
32906;SDS011;19259;51.590;5.320;2022-07-26T11:46:35;3.15;;;1.50;;
32906;SDS011;19259;51.590;5.320;2022-07-26T11:49:11;4.33;;;1.62;;
32906;SDS011;19259;51.590;5.320;2022-07-26T11:51:47;6.05;;;2.15;;
32906;SDS011;19259;51.590;5.320;2022-07-26T11:54:16;6.75;;;2.10;;
32906;SDS011;19259;51.590;5.320;2022-07-26T11:56:50;5.47;;;1.75;;
32906;SDS011;19259;51.590;5.320;2022-07-26T11:59:19;5.25;;;2.30;;
32906;SDS011;19259;51.590;5.320;2022-07-26T12:01:49;9.45;;;2.77;;
32906;SDS011;19259;51.590;5.320;2022-07-26T12:04:17;5.55;;;1.50;;
32906;SDS011;19259;51.590;5.320;2022-07-26T12:06:56;6.58;;;1.92;;
32906;SDS011;19259;51.590;5.320;2022-07-26T12:12:19;6.12;;;1.87;;
32906;SDS011;19259;51.590;5.320;2022-07-26T12:14:58;4.70;;;1.77;;
32906;SDS011;19259;51.590;5.320;2022-07-26T12:17:30;4.97;;;1.77;;
32906;SDS011;19259;51.590;5.320;2022-07-26T12:20:12;7.25;;;2.25;;
32906;SDS011;19259;51.590;5.320;2022-07-26T12:22:51;4.58;;;1.52;;
32906;SDS011;19259;51.590;5.320;2022-07-26T12:25:25;6.62;;;1.65;;
32906;SDS011;19259;51.590;5.320;2022-07-26T12:27:53;6.12;;;1.67;;
32906;SDS011;19259;51.590;5.320;2022-07-26T12:30:21;4.22;;;1.67;;
32906;SDS011;19259;51.590;5.320;2022-07-26T12:32:50;5.08;;;1.20;;
32906;SDS011;19259;51.590;5.320;2022-07-26T12:35:34;4.92;;;1.35;;
32906;SDS011;19259;51.590;5.320;2022-07-26T12:38:00;4.58;;;1.47;;
32906;SDS011;19259;51.590;5.320;2022-07-26T12:40:29;3.70;;;1.40;;
32906;SDS011;19259;51.590;5.320;2022-07-26T12:43:00;5.72;;;1.62;;
32906;SDS011;19259;51.590;5.320;2022-07-26T12:45:32;6.35;;;1.50;;
32906;SDS011;19259;51.590;5.320;2022-07-26T12:48:02;5.15;;;1.80;;
32906;SDS011;19259;51.590;5.320;2022-07-26T12:50:31;8.88;;;2.05;;
32906;SDS011;19259;51.590;5.320;2022-07-26T12:52:59;3.87;;;1.40;;
32906;SDS011;19259;51.590;5.320;2022-07-26T12:55:30;4.87;;;1.30;;
32906;SDS011;19259;51.590;5.320;2022-07-26T12:57:58;8.38;;;1.52;;
32906;SDS011;19259;51.590;5.320;2022-07-26T13:00:26;6.25;;;1.52;;
32906;SDS011;19259;51.590;5.320;2022-07-26T13:02:56;4.10;;;0.90;;
32906;SDS011;19259;51.590;5.320;2022-07-26T13:05:24;2.50;;;0.93;;
32906;SDS011;19259;51.590;5.320;2022-07-26T13:07:51;5.10;;;1.42;;
32906;SDS011;19259;51.590;5.320;2022-07-26T13:10:20;4.75;;;1.55;;
32906;SDS011;19259;51.590;5.320;2022-07-26T13:12:47;3.47;;;1.05;;
32906;SDS011;19259;51.590;5.320;2022-07-26T13:15:15;2.90;;;1.07;;
32906;SDS011;19259;51.590;5.320;2022-07-26T13:17:42;3.17;;;1.10;;
32906;SDS011;19259;51.590;5.320;2022-07-26T13:20:10;3.00;;;1.32;;
32906;SDS011;19259;51.590;5.320;2022-07-26T13:22:37;4.72;;;1.27;;
32906;SDS011;19259;51.590;5.320;2022-07-26T13:25:08;5.10;;;1.30;;
32906;SDS011;19259;51.590;5.320;2022-07-26T13:27:35;7.87;;;1.32;;
32906;SDS011;19259;51.590;5.320;2022-07-26T13:30:05;4.67;;;1.17;;
32906;SDS011;19259;51.590;5.320;2022-07-26T13:32:33;4.30;;;1.60;;
32906;SDS011;19259;51.590;5.320;2022-07-26T13:35:00;3.83;;;1.00;;
32906;SDS011;19259;51.590;5.320;2022-07-26T13:37:27;4.47;;;1.17;;
32906;SDS011;19259;51.590;5.320;2022-07-26T13:39:55;6.10;;;1.72;;
32906;SDS011;19259;51.590;5.320;2022-07-26T13:42:22;5.62;;;1.10;;
32906;SDS011;19259;51.590;5.320;2022-07-26T13:44:50;5.42;;;1.35;;
32906;SDS011;19259;51.590;5.320;2022-07-26T13:47:17;6.83;;;1.27;;
32906;SDS011;19259;51.590;5.320;2022-07-26T13:49:45;7.90;;;1.52;;
32906;SDS011;19259;51.590;5.320;2022-07-26T13:52:12;7.00;;;1.12;;
32906;SDS011;19259;51.590;5.320;2022-07-26T13:54:40;7.05;;;1.35;;
32906;SDS011;19259;51.590;5.320;2022-07-26T13:57:08;3.25;;;1.12;;
32906;SDS011;19259;51.590;5.320;2022-07-26T13:59:35;6.10;;;1.70;;
32906;SDS011;19259;51.590;5.320;2022-07-26T14:02:03;6.75;;;1.40;;
32906;SDS011;19259;51.590;5.320;2022-07-26T14:04:32;5.08;;;1.85;;
32906;SDS011;19259;51.590;5.320;2022-07-26T14:06:59;5.80;;;1.37;;
32906;SDS011;19259;51.590;5.320;2022-07-26T14:09:27;7.62;;;1.30;;
32906;SDS011;19259;51.590;5.320;2022-07-26T14:11:54;6.85;;;1.10;;
32906;SDS011;19259;51.590;5.320;2022-07-26T14:14:25;8.10;;;1.82;;
32906;SDS011;19259;51.590;5.320;2022-07-26T14:16:54;3.83;;;1.10;;
32906;SDS011;19259;51.590;5.320;2022-07-26T14:19:22;10.80;;;1.60;;
32906;SDS011;19259;51.590;5.320;2022-07-26T14:21:49;6.33;;;1.37;;
32906;SDS011;19259;51.590;5.320;2022-07-26T14:24:22;6.75;;;1.50;;
32906;SDS011;19259;51.590;5.320;2022-07-26T14:26:50;7.08;;;1.60;;
32906;SDS011;19259;51.590;5.320;2022-07-26T14:29:17;4.58;;;1.40;;
32906;SDS011;19259;51.590;5.320;2022-07-26T14:31:45;5.50;;;1.17;;
32906;SDS011;19259;51.590;5.320;2022-07-26T14:34:12;2.52;;;1.00;;
32906;SDS011;19259;51.590;5.320;2022-07-26T14:36:40;5.17;;;1.30;;
32906;SDS011;19259;51.590;5.320;2022-07-26T14:39:07;6.20;;;1.25;;
32906;SDS011;19259;51.590;5.320;2022-07-26T14:41:35;5.03;;;1.10;;
32906;SDS011;19259;51.590;5.320;2022-07-26T14:44:03;9.30;;;2.42;;
32906;SDS011;19259;51.590;5.320;2022-07-26T14:46:31;3.58;;;1.22;;
32906;SDS011;19259;51.590;5.320;2022-07-26T14:48:58;7.72;;;1.37;;
32906;SDS011;19259;51.590;5.320;2022-07-26T14:51:26;5.45;;;1.60;;
32906;SDS011;19259;51.590;5.320;2022-07-26T14:53:53;8.20;;;1.98;;
32906;SDS011;19259;51.590;5.320;2022-07-26T14:56:25;5.70;;;1.27;;
32906;SDS011;19259;51.590;5.320;2022-07-26T14:58:53;9.70;;;2.05;;
32906;SDS011;19259;51.590;5.320;2022-07-26T15:01:20;2.83;;;1.17;;
32906;SDS011;19259;51.590;5.320;2022-07-26T15:03:48;11.20;;;1.60;;
32906;SDS011;19259;51.590;5.320;2022-07-26T15:06:16;9.50;;;1.70;;
32906;SDS011;19259;51.590;5.320;2022-07-26T15:08:43;4.53;;;1.55;;
32906;SDS011;19259;51.590;5.320;2022-07-26T15:11:11;6.30;;;1.55;;
32906;SDS011;19259;51.590;5.320;2022-07-26T15:13:39;6.20;;;1.80;;
32906;SDS011;19259;51.590;5.320;2022-07-26T15:16:07;10.90;;;2.00;;
32906;SDS011;19259;51.590;5.320;2022-07-26T15:18:35;6.45;;;1.40;;